ETSL

Lechfeld Airport

Germany
METAR ETSL 191520Z AUTO 33001KT 9999 // ////// M03/M07 Q1013 ///
Observed Flight Rules
Jan-19 @ 15:20 UTC (an hour ago)
Wind Visibility
330° at 1 knots 10,000+ meters
Temperatures Readings
Current -3°C / 27°F
Dewpoint -7°C / 19°F
Humidity 74%
Altimeter 29.91" Hg
Pressure 1012.92 hPa
Elevation 562
METAR ETSL 191520Z AUTO 33001KT 9999 // ////// M03/M07 Q1013 ///
Observed Flight Rules
Jan-19 @ 15:20 UTC
(an hour ago)
Wind Visibility
330° at 1 knots 10,000+ meters
Temperature Dewpoint
-3°C / 27°F -7°C / 19°F
Humidity Altimeter Pressure
74% 29.91" Hg 1012.92 hPa